Time;durP1;ratioP1;P1;durP2;ratioP2;P2;SDS_P1;SDS_P2;PMS_P1;PMS_P2;Temp;Humidity;BMP_temperature;BMP_pressure;BME280_temperature;BME280_humidity;BME280_pressure;Samples;Min_cycle;Max_cycle;Signal;HPM_P1;HPM_P2
2021/09/28 07:35:15;;;;;;;;;5.25;5.25;;;;;16.21;60.12;101927.25;6259459;22;45394;-90
2021/09/28 07:37:51;;;;;;;;;7.50;4.75;;;;;16.16;59.58;101901.63;6251940;22;45311;-90
2021/09/28 07:40:17;;;;;;;;;7.50;7.50;;;;;16.19;59.14;101902.47;6253289;22;45511;-91
2021/09/28 07:42:44;;;;;;;;;9.75;6.00;;;;;16.26;59.26;101908.63;6278232;22;45534;-82
2021/09/28 07:45:10;;;;;;;;;5.75;5.75;;;;;16.30;58.95;101905.94;6278215;22;45252;-82
2021/09/28 07:47:35;;;;;;;;;9.00;8.25;;;;;16.45;59.18;101922.63;6278940;22;45165;-83
2021/09/28 07:50:01;;;;;;;;;8.75;8.00;;;;;16.54;59.33;101923.44;6278342;22;45109;-82
2021/09/28 07:52:29;;;;;;;;;6.00;6.00;;;;;16.58;59.12;101923.41;6251310;22;48377;-84
2021/09/28 07:54:54;;;;;;;;;7.25;6.00;;;;;16.55;59.18;101913.69;6280252;22;45301;-83
2021/09/28 07:57:20;;;;;;;;;7.50;7.00;;;;;16.75;58.66;101940.06;6253304;22;45362;-82
2021/09/28 07:59:46;;;;;;;;;10.25;8.00;;;;;16.70;58.67;101923.28;6278956;22;45304;-83
2021/09/28 08:02:11;;;;;;;;;8.25;8.25;;;;;16.73;58.60;101910.84;6279219;22;45795;-82
2021/09/28 08:04:38;;;;;;;;;6.75;6.75;;;;;16.81;58.00;101915.22;6278976;22;45180;-82
2021/09/28 08:07:07;;;;;;;;;5.75;5.75;;;;;16.94;57.80;101930.16;6279365;22;45166;-83
2021/09/28 08:09:34;;;;;;;;;4.00;4.00;;;;;16.91;57.59;101925.75;6252865;22;45302;-83
2021/09/28 08:11:59;;;;;;;;;4.67;4.67;;;;;17.01;57.32;101930.97;6253261;22;47044;-83
2021/09/28 08:14:25;;;;;;;;;5.33;4.33;;;;;17.09;56.73;101932.63;6253573;22;45687;-83
2021/09/28 08:16:51;;;;;;;;;6.00;6.00;;;;;17.18;56.33;101937.84;6278499;22;45331;-83
2021/09/28 19:27:03;;;;;;;;;;;;;;;;;;;;;
2021/09/28 19:45:13;;;;;;;;;;;;;;;;;;;;;
2021/09/28 19:52:39;;;;;;;;;;;;;;;;;;;;;
2021/09/28 20:03:09;;;;;;;;;;;;;;;;;;;;;
2021/09/28 21:07:32;;;;;;;;;;;;;;;;;;;;;
2021/09/28 21:14:29;;;;;;;;;;;;;;;;;;;;;
2021/09/28 21:16:56;;;;;;;;;1.00;1.00;;;;;17.72;46.10;101375.19;6068436;23;72797;-84
2021/09/28 22:56:19;;;;;;;;;2.00;1.67;;;;;17.22;47.28;101347.03;6220074;22;46024;-85
2021/09/28 22:58:52;;;;;;;;;0.00;0.00;;;;;17.26;47.80;101364.66;6280284;22;46430;-84
2021/09/28 23:04:36;;;;;;;;;;;;;;;;;;;;;
2021/09/28 23:07:08;;;;;;;;;0.00;0.00;;;;;17.19;47.71;101350.63;6281725;22;71213;-83
2021/09/28 23:09:38;;;;;;;;;0.00;0.00;;;;;17.22;48.26;101347.91;6280114;22;46372;-84
2021/09/28 23:12:19;;;;;;;;;0.75;0.25;;;;;17.25;48.25;101358.47;6253267;22;45541;-85
2021/09/28 23:14:47;;;;;;;;;0.75;0.75;;;;;17.35;48.55;101375.13;6281057;22;45213;-84
2021/09/28 23:17:25;;;;;;;;;;;;;;;;;;;;;
2021/09/28 23:19:50;;;;;;;;;0.67;0.00;;;;;17.35;48.74;101367.16;6277231;22;76005;-85
2021/09/28 23:22:16;;;;;;;;;1.00;1.00;;;;;17.36;48.75;101366.22;6278911;22;45291;-84
2021/09/28 23:24:42;;;;;;;;;1.00;1.00;;;;;17.28;48.58;101355.75;6252788;22;45458;-84
2021/09/28 23:27:10;;;;;;;;;1.00;1.00;;;;;17.24;48.54;101339.88;6251592;22;45489;-84
2021/09/28 23:29:39;;;;;;;;;2.00;2.00;;;;;17.18;48.69;101331.09;6252265;22;48187;-84
2021/09/28 23:32:19;;;;;;;;;1.00;1.00;;;;;17.36;48.76;101376.88;6251266;22;45426;-84
2021/09/28 23:34:56;;;;;;;;;0.00;0.00;;;;;17.36;48.52;101369.75;6253702;22;45250;-84
2021/09/28 23:37:22;;;;;;;;;0.00;0.00;;;;;17.25;48.80;101358.47;6282383;22;45220;-83
2021/09/28 23:39:47;;;;;;;;;0.00;0.00;;;;;17.26;49.31;101356.69;6255378;22;47958;-85
2021/09/28 23:42:23;;;;;;;;;1.00;1.00;;;;;17.20;49.62;101347.06;6255573;22;45304;-84
2021/09/28 23:44:49;;;;;;;;;0.67;0.67;;;;;17.22;49.46;101347.03;6287455;22;45280;-84
2021/09/28 23:47:19;;;;;;;;;0.00;0.00;;;;;17.33;49.66;101363.63;6256593;22;45411;-83
2021/09/28 23:50:11;;;;;;;;;1.00;0.00;;;;;17.13;50.10;101329.47;6284991;22;45367;-86
2021/09/28 23:52:37;;;;;;;;;1.00;1.00;;;;;17.16;50.28;101337.38;6156226;23;45391;-84
2021/09/28 23:55:04;;;;;;;;;0.00;0.00;;;;;17.29;50.44;101367.25;6265747;22;45236;-81
2021/09/28 23:57:30;;;;;;;;;0.00;0.00;;;;;17.18;50.61;101347.06;6279973;22;45429;-81
2021/09/28 23:59:55;;;;;;;;;1.00;1.00;;;;;17.19;51.07;101335.53;6279916;22;45297;-81
